Time;durP1;ratioP1;P1;durP2;ratioP2;P2;SDS_P1;SDS_P2;PMS_P1;PMS_P2;Temp;Humidity;BMP_temperature;BMP_pressure;BME280_temperature;BME280_humidity;BME280_pressure;Samples;Min_cycle;Max_cycle;Signal;HPM_P1;HPM_P2
2021/03/05 00:01:40;;;;;;;;;;;7.00;88.80;;;;;;4242587;33;21029;-76
2021/03/05 00:04:07;;;;;;;;;;;7.00;88.70;;;;;;4231923;34;20024;-75
2021/03/05 00:06:36;;;;;;;;;;;7.00;88.70;;;;;;4242823;33;27342;-75
2021/03/05 00:09:08;;;;;;;;;;;7.00;89.50;;;;;;4232300;34;26624;-76
2021/03/05 00:11:38;;;;;;;;;;;7.00;88.60;;;;;;4242629;33;35798;-75
2021/03/05 00:14:07;;;;;;;;;;;7.00;88.70;;;;;;4242397;33;32773;-75
2021/03/05 00:16:33;;;;;;;;;;;6.90;88.70;;;;;;4230738;34;32006;-75
2021/03/05 00:19:05;;;;;;;;;;;6.90;88.80;;;;;;4230364;33;36353;-76
2021/03/05 00:21:35;;;;;;;;;;;6.90;88.70;;;;;;4231972;33;31294;-75
2021/03/05 00:24:04;;;;;;;;;;;6.90;88.70;;;;;;4242005;33;35161;-75
2021/03/05 00:26:31;;;;;;;;;;;6.90;88.70;;;;;;4231465;34;20453;-75
2021/03/05 00:29:00;;;;;;;;;;;6.90;88.60;;;;;;4231141;33;20443;-75
2021/03/05 00:31:33;;;;;;;;;;;6.90;88.60;;;;;;4232330;34;20451;-75
2021/03/05 00:33:59;;;;;;;;;;;6.90;88.60;;;;;;4232209;33;20048;-75
2021/03/05 00:36:28;;;;;;;;;;;6.90;88.40;;;;;;4231364;34;20033;-75
2021/03/05 00:38:55;;;;;;;;;;;6.90;88.50;;;;;;4230475;34;22327;-75
2021/03/05 00:41:24;;;;;;;;;;;6.80;88.40;;;;;;4230758;33;37659;-75
2021/03/05 00:43:54;;;;;;;;;;;6.80;88.40;;;;;;4219243;34;20633;-75
2021/03/05 00:46:23;;;;;;;;;;;6.80;88.40;;;;;;4230923;33;20000;-75
2021/03/05 00:48:52;;;;;;;;;;;6.80;88.40;;;;;;4230027;34;38801;-76
2021/03/05 00:51:22;;;;;;;;;;;6.80;88.40;;;;;;4232130;33;20063;-75
2021/03/05 00:53:50;;;;;;;;;;;6.80;88.40;;;;;;4230123;34;36690;-75
2021/03/05 00:56:17;;;;;;;;;;;6.80;88.30;;;;;;4230185;34;32337;-75
2021/03/05 00:58:43;;;;;;;;;;;6.80;88.30;;;;;;4231300;34;22335;-75
2021/03/05 01:01:13;;;;;;;;;;;6.80;88.20;;;;;;4231031;34;20467;-75
2021/03/05 01:03:43;;;;;;;;;;;6.80;88.20;;;;;;4230728;34;38588;-76
2021/03/05 01:06:14;;;;;;;;;;;6.80;88.10;;;;;;4231411;34;32522;-75
2021/03/05 01:08:40;;;;;;;;;;;6.70;87.90;;;;;;4231010;34;36149;-76
2021/03/05 01:11:13;;;;;;;;;;;6.70;88.00;;;;;;4230826;34;20023;-75
2021/03/05 01:13:39;;;;;;;;;;;6.70;88.10;;;;;;4231159;34;27955;-76
2021/03/05 01:16:08;;;;;;;;;;;6.70;88.10;;;;;;4231274;33;29118;-76
2021/03/05 01:18:40;;;;;;;;;;;6.60;88.00;;;;;;4218996;34;20008;-76
2021/03/05 01:21:08;;;;;;;;;;;6.70;88.00;;;;;;4229882;34;38075;-75
2021/03/05 01:23:34;;;;;;;;;;;6.70;88.10;;;;;;4230228;34;32131;-76
2021/03/05 01:26:07;;;;;;;;;;;6.60;88.00;;;;;;4230830;33;20008;-75
2021/03/05 01:28:33;;;;;;;;;;;6.60;88.00;;;;;;4230082;34;30889;-76
2021/03/05 01:31:00;;;;;;;;;;;6.60;88.00;;;;;;4218393;34;19999;-75
2021/03/05 01:33:27;;;;;;;;;;;6.70;88.00;;;;;;4231849;33;20473;-76
2021/03/05 01:35:57;;;;;;;;;;;6.60;87.90;;;;;;4230593;34;20022;-76
2021/03/05 01:38:26;;;;;;;;;;;6.60;87.80;;;;;;4242354;33;20070;-76
2021/03/05 01:41:02;;;;;;;;;;;6.60;87.80;;;;;;4230908;34;20008;-75
2021/03/05 01:43:30;;;;;;;;;;;6.60;87.90;;;;;;4230966;33;27402;-75
2021/03/05 01:45:59;;;;;;;;;;;6.60;87.80;;;;;;4230796;33;27456;-76
2021/03/05 01:48:27;;;;;;;;;;;6.60;87.90;;;;;;4230258;34;20557;-76
2021/03/05 01:51:04;;;;;;;;;;;6.50;87.90;;;;;;4229481;33;32434;-76
2021/03/05 01:53:30;;;;;;;;;;;6.50;87.90;;;;;;4230650;33;28646;-75
2021/03/05 01:55:57;;;;;;;;;;;6.50;87.90;;;;;;4218877;34;20526;-76
2021/03/05 01:58:27;;;;;;;;;;;6.50;88.00;;;;;;4242241;33;20027;-76
2021/03/05 02:01:00;;;;;;;;;;;6.50;88.00;;;;;;4230737;34;20055;-76
2021/03/05 02:03:34;;;;;;;;;;;6.50;88.10;;;;;;4230107;34;20008;-75
2021/03/05 02:06:04;;;;;;;;;;;6.50;88.10;;;;;;4230492;34;20011;-76
2021/03/05 02:08:33;;;;;;;;;;;6.40;88.10;;;;;;4230182;34;20000;-76
2021/03/05 02:11:05;;;;;;;;;;;6.40;88.00;;;;;;4230772;33;28630;-76
2021/03/05 02:13:37;;;;;;;;;;;6.40;88.00;;;;;;4218174;34;27775;-76
2021/03/05 02:16:08;;;;;;;;;;;6.40;87.80;;;;;;4217610;34;34632;-76
2021/03/05 02:18:46;;;;;;;;;;;6.40;87.70;;;;;;4230543;33;20063;-76
2021/03/05 02:21:32;;;;;;;;;;;6.40;87.80;;;;;;4231873;33;20451;-75
2021/03/05 02:24:17;;;;;;;;;;;6.40;87.60;;;;;;4241478;33;20020;-75
2021/03/05 02:27:02;;;;;;;;;;;6.40;87.50;;;;;;4231690;33;20025;-76
2021/03/05 02:29:43;;;;;;;;;;;6.40;87.20;;;;;;4242362;33;20425;-75
2021/03/05 02:32:18;;;;;;;;;;;6.40;86.90;;;;;;4231528;33;20046;-76
2021/03/05 02:34:48;;;;;;;;;;;6.40;86.90;;;;;;4242028;33;20018;-75
2021/03/05 02:37:25;;;;;;;;;;;6.40;87.00;;;;;;4241238;33;20393;-76
2021/03/05 02:40:08;;;;;;;;;;;6.40;86.80;;;;;;4231111;33;20393;-76
2021/03/05 02:42:51;;;;;;;;;;;6.40;86.70;;;;;;4231498;34;20026;-76
2021/03/05 02:45:24;;;;;;;;;;;6.40;86.80;;;;;;4229834;34;20018;-76
2021/03/05 02:48:01;;;;;;;;;;;6.30;86.50;;;;;;4230436;34;20039;-76
2021/03/05 02:50:35;;;;;;;;;;;6.40;86.60;;;;;;4230298;34;20019;-76
2021/03/05 02:53:06;;;;;;;;;;;6.30;86.50;;;;;;4230138;34;20413;-76
2021/03/05 02:55:36;;;;;;;;;;;6.30;86.10;;;;;;4230340;34;20063;-76
2021/03/05 02:58:06;;;;;;;;;;;6.20;85.90;;;;;;4230779;34;20402;-76
2021/03/05 03:00:34;;;;;;;;;;;6.20;86.10;;;;;;4231377;34;20060;-76
2021/03/05 03:03:04;;;;;;;;;;;6.20;85.80;;;;;;4230478;33;20011;-76
2021/03/05 03:05:36;;;;;;;;;;;6.20;86.10;;;;;;4244039;33;20001;-76
2021/03/05 03:08:06;;;;;;;;;;;6.20;86.20;;;;;;4232317;33;20019;-76
2021/03/05 03:10:36;;;;;;;;;;;6.20;86.10;;;;;;4244307;33;20071;-76
2021/03/05 03:13:04;;;;;;;;;;;6.10;85.90;;;;;;4233743;33;20019;-76
2021/03/05 03:15:31;;;;;;;;;;;6.10;85.70;;;;;;4231631;34;20000;-76
2021/03/05 03:18:03;;;;;;;;;;;6.10;86.10;;;;;;4220588;34;20000;-76
2021/03/05 03:20:30;;;;;;;;;;;6.10;85.80;;;;;;4219764;34;35048;-75
2021/03/05 03:22:57;;;;;;;;;;;6.10;86.20;;;;;;4232508;34;20123;-76
2021/03/05 03:25:27;;;;;;;;;;;6.10;86.00;;;;;;4220524;33;20044;-76
2021/03/05 03:27:57;;;;;;;;;;;6.10;86.00;;;;;;4243497;33;32417;-75
2021/03/05 03:30:24;;;;;;;;;;;6.10;86.10;;;;;;4219720;34;32315;-75
2021/03/05 03:32:54;;;;;;;;;;;6.10;86.00;;;;;;4231063;34;39226;-76
2021/03/05 03:35:21;;;;;;;;;;;6.10;85.80;;;;;;4232380;33;31875;-76
2021/03/05 03:38:13;;;;;;;;;;;6.00;85.80;;;;;;4231529;34;22246;-76
2021/03/05 03:40:41;;;;;;;;;;;6.00;85.80;;;;;;4219939;34;28186;-75
2021/03/05 03:43:08;;;;;;;;;;;6.00;86.10;;;;;;4231258;34;28280;-76
2021/03/05 03:45:35;;;;;;;;;;;6.00;86.10;;;;;;4242932;33;20056;-75
2021/03/05 03:48:03;;;;;;;;;;;6.00;86.10;;;;;;4230858;34;34096;-76
2021/03/05 03:50:34;;;;;;;;;;;6.00;86.20;;;;;;4231519;34;26860;-75
2021/03/05 03:53:08;;;;;;;;;;;6.00;86.30;;;;;;4232161;33;20014;-75
2021/03/05 03:55:40;;;;;;;;;;;6.00;86.20;;;;;;4233150;33;20015;-76
2021/03/05 03:58:09;;;;;;;;;;;5.90;86.20;;;;;;4232063;34;20406;-76
2021/03/05 04:00:39;;;;;;;;;;;5.90;86.20;;;;;;4232003;34;20485;-76
2021/03/05 04:03:08;;;;;;;;;;;5.90;86.30;;;;;;4231868;34;31872;-76
2021/03/05 04:05:41;;;;;;;;;;;5.90;86.30;;;;;;4219295;34;25135;-76
2021/03/05 04:08:22;;;;;;;;;;;6.00;86.30;;;;;;4241915;33;23161;-76
2021/03/05 04:10:48;;;;;;;;;;;6.00;86.30;;;;;;4242337;33;37191;-75
2021/03/05 04:13:16;;;;;;;;;;;6.00;86.20;;;;;;4230948;34;36369;-76
2021/03/05 04:15:44;;;;;;;;;;;6.00;86.30;;;;;;4230129;33;35331;-76
2021/03/05 04:18:13;;;;;;;;;;;5.90;86.20;;;;;;4242466;33;24326;-75
2021/03/05 04:20:41;;;;;;;;;;;6.00;86.30;;;;;;4231795;33;36336;-75
2021/03/05 04:23:13;;;;;;;;;;;5.90;86.40;;;;;;4231508;34;20059;-76
2021/03/05 04:25:43;;;;;;;;;;;6.00;86.50;;;;;;4232422;33;20016;-76
2021/03/05 04:28:16;;;;;;;;;;;6.00;86.50;;;;;;4242415;33;32081;-76
2021/03/05 04:30:45;;;;;;;;;;;5.90;86.60;;;;;;4232227;33;22172;-76
2021/03/05 04:33:12;;;;;;;;;;;5.90;86.60;;;;;;4241813;33;35515;-76
2021/03/05 04:35:44;;;;;;;;;;;5.90;86.60;;;;;;4219507;34;20004;-76
2021/03/05 04:38:11;;;;;;;;;;;5.90;86.70;;;;;;4231375;34;20016;-76
2021/03/05 04:40:40;;;;;;;;;;;5.90;86.80;;;;;;4232351;33;20034;-76
2021/03/05 04:43:10;;;;;;;;;;;5.90;87.00;;;;;;4243373;33;20398;-75
2021/03/05 04:45:41;;;;;;;;;;;5.90;86.80;;;;;;4231168;34;20015;-76
2021/03/05 04:48:10;;;;;;;;;;;5.90;86.90;;;;;;4231595;33;27992;-76
2021/03/05 04:50:37;;;;;;;;;;;5.90;86.90;;;;;;4231633;33;24048;-76
2021/03/05 04:53:07;;;;;;;;;;;5.90;87.00;;;;;;4230296;34;35382;-76
2021/03/05 04:55:40;;;;;;;;;;;5.90;87.00;;;;;;4242889;33;20026;-76
2021/03/05 04:58:07;;;;;;;;;;;5.90;87.20;;;;;;4230180;34;30607;-75
2021/03/05 05:00:33;;;;;;;;;;;5.90;87.00;;;;;;4231618;34;29821;-75
2021/03/05 05:03:05;;;;;;;;;;;6.00;87.00;;;;;;4230910;33;37780;-76
2021/03/05 05:05:37;;;;;;;;;;;6.00;87.10;;;;;;4230921;33;20018;-76
2021/03/05 05:08:12;;;;;;;;;;;6.00;87.10;;;;;;4231760;33;20022;-76
2021/03/05 05:10:41;;;;;;;;;;;5.90;87.00;;;;;;4231544;33;26896;-76
2021/03/05 05:13:11;;;;;;;;;;;6.00;87.10;;;;;;4231464;34;29624;-76
2021/03/05 05:15:40;;;;;;;;;;;6.00;87.10;;;;;;4230256;34;22185;-76
2021/03/05 05:18:09;;;;;;;;;;;6.00;87.10;;;;;;4230997;34;20008;-76
2021/03/05 05:20:36;;;;;;;;;;;6.00;87.10;;;;;;4232063;34;20440;-76
2021/03/05 05:23:08;;;;;;;;;;;6.00;87.10;;;;;;4229670;34;34082;-76
2021/03/05 05:25:37;;;;;;;;;;;6.00;87.00;;;;;;4218570;33;25572;-76
2021/03/05 05:28:07;;;;;;;;;;;6.00;87.00;;;;;;4230998;33;40702;-76
2021/03/05 05:30:36;;;;;;;;;;;6.00;87.10;;;;;;4230417;33;20070;-75
2021/03/05 05:33:05;;;;;;;;;;;5.90;87.00;;;;;;4231961;34;20007;-76
2021/03/05 05:35:32;;;;;;;;;;;5.90;87.00;;;;;;4241624;33;34997;-76
2021/03/05 05:38:05;;;;;;;;;;;5.90;87.00;;;;;;4229561;34;30219;-76
2021/03/05 05:40:34;;;;;;;;;;;5.90;86.90;;;;;;4229648;34;34982;-76
2021/03/05 05:43:03;;;;;;;;;;;5.90;86.90;;;;;;4241797;33;20410;-75
2021/03/05 05:45:35;;;;;;;;;;;5.90;86.80;;;;;;4219058;34;20398;-76
2021/03/05 05:48:03;;;;;;;;;;;6.00;86.90;;;;;;4230050;34;25675;-75
2021/03/05 05:50:37;;;;;;;;;;;6.00;86.60;;;;;;4231966;33;20007;-76
2021/03/05 05:53:07;;;;;;;;;;;6.00;86.50;;;;;;4218030;34;37631;-76
2021/03/05 05:55:36;;;;;;;;;;;6.00;86.50;;;;;;4231239;34;20027;-75
2021/03/05 05:58:05;;;;;;;;;;;6.00;86.50;;;;;;4230545;34;33997;-76
2021/03/05 06:00:32;;;;;;;;;;;6.00;86.50;;;;;;4229829;34;38157;-76
2021/03/05 06:03:01;;;;;;;;;;;6.00;86.50;;;;;;4229578;34;20094;-76
2021/03/05 06:05:30;;;;;;;;;;;5.90;86.40;;;;;;4241725;33;20012;-76
2021/03/05 06:07:57;;;;;;;;;;;5.90;86.30;;;;;;4217977;34;32157;-76
2021/03/05 06:10:29;;;;;;;;;;;5.90;86.40;;;;;;4230324;34;20010;-76
2021/03/05 06:12:58;;;;;;;;;;;5.90;86.40;;;;;;4229749;34;30893;-76
2021/03/05 06:15:29;;;;;;;;;;;5.90;86.40;;;;;;4230300;34;20019;-76
2021/03/05 06:17:56;;;;;;;;;;;5.90;86.40;;;;;;4230752;34;29031;-76
2021/03/05 06:20:42;;;;;;;;;;;5.90;86.50;;;;;;4230613;33;20047;-76
2021/03/05 06:23:13;;;;;;;;;;;5.90;86.60;;;;;;4230826;33;20494;-76
2021/03/05 06:25:46;;;;;;;;;;;5.90;86.60;;;;;;4230142;33;20119;-76
2021/03/05 06:28:17;;;;;;;;;;;5.90;86.60;;;;;;4231608;33;20034;-75
2021/03/05 06:30:44;;;;;;;;;;;5.90;86.60;;;;;;4229943;34;22311;-76
2021/03/05 06:33:28;;;;;;;;;;;5.90;86.40;;;;;;4229741;34;24025;-76
2021/03/05 06:36:16;;;;;;;;;;;5.90;86.60;;;;;;4230334;34;20410;-76
2021/03/05 06:38:51;;;;;;;;;;;5.90;86.50;;;;;;4231581;33;20064;-75
2021/03/05 06:41:28;;;;;;;;;;;5.90;86.50;;;;;;4232865;34;20528;-76
2021/03/05 06:43:59;;;;;;;;;;;5.90;86.60;;;;;;4232404;34;24709;-76
2021/03/05 06:46:26;;;;;;;;;;;5.90;86.50;;;;;;4244340;33;20463;-76
2021/03/05 06:48:59;;;;;;;;;;;5.90;86.40;;;;;;4244468;33;20038;-75
2021/03/05 06:51:27;;;;;;;;;;;5.90;86.30;;;;;;4232235;34;30057;-76
2021/03/05 06:54:15;;;;;;;;;;;5.90;86.20;;;;;;4231748;34;35658;-76
2021/03/05 06:56:51;;;;;;;;;;;5.90;86.10;;;;;;4220179;34;39689;-76
2021/03/05 06:59:19;;;;;;;;;;;5.90;86.10;;;;;;4243576;33;38137;-76
2021/03/05 07:01:55;;;;;;;;;;;5.80;85.70;;;;;;4232767;34;32177;-76
2021/03/05 07:04:29;;;;;;;;;;;5.80;85.80;;;;;;4231904;34;26140;-76
2021/03/05 07:06:55;;;;;;;;;;;5.80;85.50;;;;;;4232748;34;20027;-76
2021/03/05 07:09:31;;;;;;;;;;;5.80;85.40;;;;;;4233318;34;20012;-77
2021/03/05 07:12:08;;;;;;;;;;;5.80;85.60;;;;;;4244321;33;20053;-76
2021/03/05 07:14:38;;;;;;;;;;;5.70;85.40;;;;;;4232894;34;20018;-76
2021/03/05 07:17:06;;;;;;;;;;;5.70;85.50;;;;;;4233783;34;20426;-76
2021/03/05 07:19:37;;;;;;;;;;;5.70;85.60;;;;;;4233160;34;20012;-76
2021/03/05 07:22:04;;;;;;;;;;;5.70;85.50;;;;;;4232121;34;19997;-76
2021/03/05 07:24:36;;;;;;;;;;;5.60;85.40;;;;;;4232227;34;20008;-76
2021/03/05 07:27:04;;;;;;;;;;;5.70;85.50;;;;;;4232131;34;20023;-75
2021/03/05 07:29:37;;;;;;;;;;;5.60;85.40;;;;;;4232106;34;20070;-76
2021/03/05 07:32:13;;;;;;;;;;;5.60;85.50;;;;;;4243201;33;23071;-76
2021/03/05 07:34:46;;;;;;;;;;;5.60;85.30;;;;;;4243133;33;35279;-76
2021/03/05 07:37:19;;;;;;;;;;;5.60;85.50;;;;;;4232057;34;20000;-76
2021/03/05 07:39:54;;;;;;;;;;;5.60;85.30;;;;;;4220601;34;20046;-76
2021/03/05 07:42:24;;;;;;;;;;;5.50;85.40;;;;;;4220831;34;19996;-76
2021/03/05 07:44:56;;;;;;;;;;;5.50;85.20;;;;;;4243928;33;20012;-76
2021/03/05 07:47:26;;;;;;;;;;;5.50;85.40;;;;;;4233388;33;20020;-76
2021/03/05 07:49:57;;;;;;;;;;;5.50;85.50;;;;;;4242917;33;20026;-76
2021/03/05 07:52:26;;;;;;;;;;;5.50;85.30;;;;;;4232495;34;20403;-76
2021/03/05 07:54:56;;;;;;;;;;;5.50;85.40;;;;;;4233218;34;20415;-76
2021/03/05 07:57:30;;;;;;;;;;;5.50;85.20;;;;;;4232200;33;34966;-76
2021/03/05 07:59:59;;;;;;;;;;;5.50;85.20;;;;;;4232230;33;33695;-76
2021/03/05 08:02:50;;;;;;;;;;;5.50;85.00;;;;;;4230837;34;20348;-76
2021/03/05 08:05:30;;;;;;;;;;;5.50;85.00;;;;;;4228350;33;20027;-76
2021/03/05 08:08:14;;;;;;;;;;;5.50;85.20;;;;;;4231598;34;20075;-76
2021/03/05 08:10:47;;;;;;;;;;;5.40;85.00;;;;;;4231790;34;20008;-76
2021/03/05 08:13:52;;;;;;;;;;;5.40;84.90;;;;;;4243730;33;20004;-76
2021/03/05 08:16:31;;;;;;;;;;;5.40;84.90;;;;;;4232279;34;30480;-76
2021/03/05 08:19:04;;;;;;;;;;;5.40;85.10;;;;;;4243028;33;20081;-76
2021/03/05 08:21:50;;;;;;;;;;;5.40;85.10;;;;;;4231831;33;19996;-76
2021/03/05 08:24:40;;;;;;;;;;;5.40;85.00;;;;;;4243193;33;20026;-76
2021/03/05 08:27:06;;;;;;;;;;;5.40;85.10;;;;;;4242447;33;30713;-76
2021/03/05 08:29:53;;;;;;;;;;;5.40;84.90;;;;;;4241880;33;37388;-76
2021/03/05 08:32:35;;;;;;;;;;;5.40;84.80;;;;;;4242304;33;38296;-76
2021/03/05 08:35:05;;;;;;;;;;;5.40;84.80;;;;;;4242962;33;20000;-76
2021/03/05 08:37:34;;;;;;;;;;;5.40;84.70;;;;;;4231314;33;20008;-76
2021/03/05 08:40:09;;;;;;;;;;;5.40;84.80;;;;;;4232156;34;20059;-76
2021/03/05 08:42:41;;;;;;;;;;;5.40;84.50;;;;;;4243299;33;20051;-76
2021/03/05 08:45:19;;;;;;;;;;;5.40;84.60;;;;;;4232651;34;20067;-76
2021/03/05 08:47:51;;;;;;;;;;;5.50;84.70;;;;;;4231370;34;20064;-76
2021/03/05 08:50:19;;;;;;;;;;;5.50;84.40;;;;;;4231540;33;20059;-76
2021/03/05 08:52:52;;;;;;;;;;;5.50;84.30;;;;;;4243047;33;20007;-76
2021/03/05 08:55:20;;;;;;;;;;;5.40;84.10;;;;;;4231590;34;20082;-76
2021/03/05 08:57:52;;;;;;;;;;;5.50;84.30;;;;;;4231186;34;20000;-77
2021/03/05 09:00:27;;;;;;;;;;;5.50;84.20;;;;;;4230842;33;20072;-76
2021/03/05 09:03:05;;;;;;;;;;;5.50;84.00;;;;;;4219245;34;20008;-76
2021/03/05 09:05:39;;;;;;;;;;;5.50;84.00;;;;;;4242804;33;20004;-76
2021/03/05 09:08:09;;;;;;;;;;;5.50;84.00;;;;;;4232376;34;20432;-76
2021/03/05 09:10:43;;;;;;;;;;;5.60;83.80;;;;;;4230866;34;20072;-76
2021/03/05 09:13:14;;;;;;;;;;;5.60;83.80;;;;;;4231565;34;20130;-76
2021/03/05 09:15:47;;;;;;;;;;;5.60;83.70;;;;;;4231116;33;38036;-76
2021/03/05 09:18:15;;;;;;;;;;;5.60;83.50;;;;;;4241735;33;38697;-76
2021/03/05 09:20:50;;;;;;;;;;;5.60;83.30;;;;;;4219299;34;20018;-76
2021/03/05 09:23:21;;;;;;;;;;;5.60;83.40;;;;;;4232181;33;20075;-76
2021/03/05 09:25:58;;;;;;;;;;;5.60;83.30;;;;;;4232243;33;20398;-76
2021/03/05 09:28:37;;;;;;;;;;;5.60;83.30;;;;;;4218716;34;20004;-76
2021/03/05 09:31:04;;;;;;;;;;;5.60;82.90;;;;;;4231009;34;20031;-76
2021/03/05 09:33:33;;;;;;;;;;;5.60;82.90;;;;;;4230479;34;20042;-76
2021/03/05 09:36:02;;;;;;;;;;;5.70;82.50;;;;;;4232101;33;20050;-76
2021/03/05 09:38:32;;;;;;;;;;;5.60;82.40;;;;;;4230408;34;20520;-76
2021/03/05 09:41:28;;;;;;;;;;;5.70;82.10;;;;;;4231698;34;20007;-76
2021/03/05 09:43:57;;;;;;;;;;;5.70;82.00;;;;;;4227310;33;28013;-76
2021/03/05 09:46:25;;;;;;;;;;;5.70;82.00;;;;;;4229687;34;31069;-76
2021/03/05 09:48:55;;;;;;;;;;;5.70;81.80;;;;;;4229639;34;36181;-76
2021/03/05 09:51:22;;;;;;;;;;;5.70;81.60;;;;;;4230238;34;20015;-76
2021/03/05 09:53:52;;;;;;;;;;;5.70;81.70;;;;;;4230967;34;20016;-76
2021/03/05 09:56:24;;;;;;;;;;;5.70;81.50;;;;;;4230489;33;20000;-77
2021/03/05 09:59:00;;;;;;;;;;;5.70;80.80;;;;;;4231889;33;20059;-76
2021/03/05 10:01:29;;;;;;;;;;;5.70;80.40;;;;;;4230340;33;20010;-76
2021/03/05 10:04:00;;;;;;;;;;;5.70;81.20;;;;;;4229805;34;29461;-77
2021/03/05 10:06:32;;;;;;;;;;;5.70;80.70;;;;;;4230738;34;20079;-77
2021/03/05 10:09:12;;;;;;;;;;;5.70;80.70;;;;;;4230842;34;20045;-77
2021/03/05 10:11:39;;;;;;;;;;;5.70;79.90;;;;;;4230084;34;32898;-76
2021/03/05 10:14:09;;;;;;;;;;;5.80;79.70;;;;;;4233126;33;20008;-76
2021/03/05 10:16:40;;;;;;;;;;;5.80;79.60;;;;;;4245202;33;20026;-76
2021/03/05 10:19:12;;;;;;;;;;;5.80;80.20;;;;;;4233377;34;20003;-76
2021/03/05 10:21:43;;;;;;;;;;;5.80;79.70;;;;;;4221329;34;20063;-76
2021/03/05 10:24:11;;;;;;;;;;;5.80;79.70;;;;;;4234716;34;20501;-76
2021/03/05 10:26:38;;;;;;;;;;;5.80;79.50;;;;;;4234319;33;20027;-76
2021/03/05 10:29:13;;;;;;;;;;;5.90;78.90;;;;;;4232885;34;20053;-76
2021/03/05 10:31:40;;;;;;;;;;;5.90;79.20;;;;;;4221556;34;20133;-76
2021/03/05 10:34:28;;;;;;;;;;;5.90;78.80;;;;;;4234261;33;20442;-76
2021/03/05 10:36:59;;;;;;;;;;;5.90;78.50;;;;;;4231876;34;27763;-77
2021/03/05 10:39:33;;;;;;;;;;;5.90;78.40;;;;;;4232605;33;20734;-76
2021/03/05 10:42:03;;;;;;;;;;;5.90;78.30;;;;;;4233665;34;27259;-76
2021/03/05 10:44:35;;;;;;;;;;;6.00;77.90;;;;;;4232581;34;20127;-77
2021/03/05 10:47:09;;;;;;;;;;;6.00;77.80;;;;;;4243986;33;34737;-76
2021/03/05 10:49:38;;;;;;;;;;;6.00;77.20;;;;;;4233148;33;28259;-76
2021/03/05 10:52:10;;;;;;;;;;;6.10;78.50;;;;;;4232446;34;20010;-77
2021/03/05 10:54:39;;;;;;;;;;;6.10;77.40;;;;;;4231742;34;39180;-76
2021/03/05 10:57:13;;;;;;;;;;;6.10;77.20;;;;;;4233885;33;20012;-77
2021/03/05 10:59:42;;;;;;;;;;;6.20;76.20;;;;;;4232598;34;20082;-76
2021/03/05 11:02:10;;;;;;;;;;;6.20;76.80;;;;;;4233840;33;20098;-77
2021/03/05 11:04:43;;;;;;;;;;;6.20;76.80;;;;;;4232749;33;20371;-77
2021/03/05 11:07:12;;;;;;;;;;;6.30;76.20;;;;;;4232451;34;20122;-77
2021/03/05 11:09:39;;;;;;;;;;;6.30;76.10;;;;;;4231373;34;30903;-77
2021/03/05 11:12:07;;;;;;;;;;;6.40;76.70;;;;;;4232216;34;20414;-76
2021/03/05 11:14:37;;;;;;;;;;;6.40;76.30;;;;;;4231422;34;39344;-76
2021/03/05 11:17:06;;;;;;;;;;;6.50;76.10;;;;;;4231062;34;40559;-77
2021/03/05 11:19:33;;;;;;;;;;;6.50;76.40;;;;;;4231584;34;36336;-76
2021/03/05 11:22:00;;;;;;;;;;;6.60;75.50;;;;;;4219938;34;40246;-76
2021/03/05 11:24:30;;;;;;;;;;;6.60;75.70;;;;;;4232297;33;20235;-77
2021/03/05 11:26:56;;;;;;;;;;;6.60;75.70;;;;;;4231114;34;33688;-76
2021/03/05 11:29:23;;;;;;;;;;;6.70;75.80;;;;;;4231194;34;33056;-76
2021/03/05 11:31:52;;;;;;;;;;;6.70;74.80;;;;;;4232280;33;29381;-77
2021/03/05 11:34:21;;;;;;;;;;;6.80;75.40;;;;;;4233144;33;20075;-76
2021/03/05 11:36:49;;;;;;;;;;;6.80;74.70;;;;;;4231249;34;38422;-76
2021/03/05 11:39:18;;;;;;;;;;;6.90;74.10;;;;;;4220361;34;20001;-76
2021/03/05 11:41:45;;;;;;;;;;;6.90;74.50;;;;;;4232085;34;32735;-76
2021/03/05 11:44:19;;;;;;;;;;;6.90;72.90;;;;;;4231431;34;31219;-77
2021/03/05 11:46:45;;;;;;;;;;;7.00;73.40;;;;;;4232115;34;38679;-76
2021/03/05 11:49:12;;;;;;;;;;;7.00;73.70;;;;;;4231417;34;30203;-76
2021/03/05 11:51:42;;;;;;;;;;;7.10;73.40;;;;;;4232316;34;36379;-77
2021/03/05 11:54:09;;;;;;;;;;;7.10;73.70;;;;;;4232431;33;34641;-77
2021/03/05 11:56:36;;;;;;;;;;;7.20;73.40;;;;;;4232189;34;20083;-77
2021/03/05 11:59:05;;;;;;;;;;;7.20;73.10;;;;;;4242882;33;33570;-77
2021/03/05 12:01:32;;;;;;;;;;;7.20;73.50;;;;;;4231832;34;38505;-77
2021/03/05 12:03:59;;;;;;;;;;;7.30;72.50;;;;;;4232168;33;36242;-77
2021/03/05 12:06:28;;;;;;;;;;;7.30;72.00;;;;;;4242904;33;20084;-77
2021/03/05 12:08:59;;;;;;;;;;;7.40;72.80;;;;;;4242851;33;30406;-77
2021/03/05 12:11:26;;;;;;;;;;;7.40;72.80;;;;;;4233005;34;20068;-76
2021/03/05 12:13:54;;;;;;;;;;;7.50;72.60;;;;;;4231248;34;20910;-78
2021/03/05 12:16:23;;;;;;;;;;;7.50;72.20;;;;;;4231428;34;35811;-78
2021/03/05 12:18:50;;;;;;;;;;;7.50;71.50;;;;;;4232431;33;26326;-77
2021/03/05 12:21:17;;;;;;;;;;;7.50;70.30;;;;;;4219090;34;38920;-78
2021/03/05 12:23:44;;;;;;;;;;;7.60;70.40;;;;;;4230787;34;36644;-78
2021/03/05 12:26:10;;;;;;;;;;;7.60;71.20;;;;;;4230511;33;40064;-77
2021/03/05 12:28:37;;;;;;;;;;;7.60;70.10;;;;;;4230582;34;41044;-77
2021/03/05 12:31:07;;;;;;;;;;;7.70;70.70;;;;;;4231764;34;20370;-78
2021/03/05 12:33:33;;;;;;;;;;;7.70;70.70;;;;;;4218570;34;38911;-77
2021/03/05 12:36:01;;;;;;;;;;;7.70;70.90;;;;;;4230959;33;27739;-78
2021/03/05 12:38:27;;;;;;;;;;;7.70;70.80;;;;;;4230610;34;24714;-78
2021/03/05 12:40:54;;;;;;;;;;;7.80;71.10;;;;;;4230868;33;21527;-78
2021/03/05 12:43:21;;;;;;;;;;;7.80;69.80;;;;;;4231656;33;37306;-77
2021/03/05 12:45:49;;;;;;;;;;;7.80;70.80;;;;;;4230366;34;31645;-78
2021/03/05 12:48:29;;;;;;;;;;;7.90;70.40;;;;;;4230384;34;35654;-78
2021/03/05 12:50:56;;;;;;;;;;;7.90;69.70;;;;;;4232542;33;20462;-78
2021/03/05 12:53:23;;;;;;;;;;;7.90;68.60;;;;;;4241582;33;37618;-78
2021/03/05 12:55:49;;;;;;;;;;;7.90;67.30;;;;;;4231617;34;25555;-78
2021/03/05 12:58:17;;;;;;;;;;;7.90;68.90;;;;;;4230225;34;21089;-78
2021/03/05 13:00:43;;;;;;;;;;;7.90;68.10;;;;;;4230554;34;33626;-78
2021/03/05 13:03:14;;;;;;;;;;;7.90;67.70;;;;;;4242055;33;20032;-78
2021/03/05 13:05:43;;;;;;;;;;;7.90;67.60;;;;;;4218701;34;28374;-78
2021/03/05 13:08:11;;;;;;;;;;;7.90;69.10;;;;;;4231389;34;32274;-78
2021/03/05 13:10:38;;;;;;;;;;;7.90;67.80;;;;;;4230511;34;20007;-78
2021/03/05 13:13:05;;;;;;;;;;;7.90;68.30;;;;;;4229817;34;28412;-77
2021/03/05 13:15:32;;;;;;;;;;;8.00;69.50;;;;;;4231674;34;30641;-78
2021/03/05 13:18:00;;;;;;;;;;;8.00;67.90;;;;;;4230413;34;20469;-78
2021/03/05 13:20:27;;;;;;;;;;;8.00;67.50;;;;;;4229863;34;37920;-78
2021/03/05 13:22:54;;;;;;;;;;;8.10;67.30;;;;;;4230433;34;30145;-77
2021/03/05 13:25:30;;;;;;;;;;;8.00;66.70;;;;;;4229731;34;29190;-78
2021/03/05 13:27:57;;;;;;;;;;;8.00;66.70;;;;;;4231383;34;26000;-77
2021/03/05 13:30:24;;;;;;;;;;;8.10;66.20;;;;;;4231238;34;28943;-78
2021/03/05 13:32:56;;;;;;;;;;;8.10;66.90;;;;;;4229425;34;37696;-77
2021/03/05 13:35:28;;;;;;;;;;;8.10;66.10;;;;;;4219403;34;20031;-77
2021/03/05 13:37:58;;;;;;;;;;;8.10;67.00;;;;;;4230389;33;20414;-78
2021/03/05 13:40:27;;;;;;;;;;;8.10;66.80;;;;;;4230951;34;20026;-77
2021/03/05 13:42:54;;;;;;;;;;;8.10;67.00;;;;;;4242444;33;20017;-78
2021/03/05 13:45:23;;;;;;;;;;;8.10;67.60;;;;;;4230613;34;20127;-77
2021/03/05 13:48:12;;;;;;;;;;;8.10;67.20;;;;;;4231085;33;20012;-77
2021/03/05 13:50:39;;;;;;;;;;;8.20;67.70;;;;;;4230865;34;33856;-77
2021/03/05 13:53:06;;;;;;;;;;;8.20;67.20;;;;;;4242054;33;20049;-77
2021/03/05 13:55:33;;;;;;;;;;;8.20;66.50;;;;;;4229642;34;28102;-77
2021/03/05 13:57:59;;;;;;;;;;;8.20;67.40;;;;;;4241737;33;20343;-77
2021/03/05 14:00:26;;;;;;;;;;;8.20;65.30;;;;;;4241877;33;25592;-78
2021/03/05 14:02:53;;;;;;;;;;;8.20;65.50;;;;;;4217340;34;43513;-77
2021/03/05 14:05:20;;;;;;;;;;;8.30;66.10;;;;;;4230730;34;34937;-77
2021/03/05 14:07:49;;;;;;;;;;;8.30;65.90;;;;;;4230591;33;40477;-77
2021/03/05 14:10:15;;;;;;;;;;;8.30;65.60;;;;;;4230201;34;44562;-77
2021/03/05 14:12:42;;;;;;;;;;;8.30;65.50;;;;;;4229224;34;32517;-77
2021/03/05 14:15:09;;;;;;;;;;;8.30;65.70;;;;;;4230566;34;41881;-77
2021/03/05 14:17:35;;;;;;;;;;;8.30;64.80;;;;;;4241111;33;39886;-77
2021/03/05 14:20:04;;;;;;;;;;;8.30;65.70;;;;;;4229096;33;35639;-77
2021/03/05 14:22:32;;;;;;;;;;;8.30;64.60;;;;;;4241272;33;38977;-77
2021/03/05 14:25:03;;;;;;;;;;;8.30;64.60;;;;;;4231141;34;20109;-77
2021/03/05 14:27:29;;;;;;;;;;;8.30;65.40;;;;;;4230475;34;40698;-77
2021/03/05 14:29:56;;;;;;;;;;;8.40;65.70;;;;;;4229636;34;23197;-77
2021/03/05 14:32:23;;;;;;;;;;;8.40;65.80;;;;;;4230647;34;30416;-77
2021/03/05 14:34:50;;;;;;;;;;;8.40;65.30;;;;;;4229993;33;41983;-77
2021/03/05 14:37:17;;;;;;;;;;;8.40;65.00;;;;;;4230244;34;31493;-77
2021/03/05 14:39:43;;;;;;;;;;;8.40;64.70;;;;;;4240974;33;29606;-77
2021/03/05 14:42:10;;;;;;;;;;;8.40;66.20;;;;;;4230196;33;40408;-77
2021/03/05 14:44:39;;;;;;;;;;;8.40;64.60;;;;;;4230989;34;20008;-77
2021/03/05 14:47:09;;;;;;;;;;;8.40;65.30;;;;;;4230667;34;25016;-78
2021/03/05 14:49:36;;;;;;;;;;;8.40;65.60;;;;;;4240572;33;35155;-77
2021/03/05 14:52:03;;;;;;;;;;;8.40;65.10;;;;;;4229533;33;20000;-77